Terminal Aerodrome Forecast
Issued by NWS Charleston, WV

Current Version | Previous Version | Graphics & Text | Print | Product List | Glossary On
Versions: 1 2 3 4 5 6 7 8 9 10 11 12 13 14 15 16 17 18 19 20 21 22
692
FTUS41 KRLX 260521
TAFEKN
TAF
KEKN 260521Z 2606/2706 29003KT P6SM SCT020
      TEMPO 2607/2609 BKN015
     FM260900 29003KT 4SM BR BKN008
     FM261000 00000KT 1/4SM FG OVC001
     FM261400 00000KT P6SM SCT035
     FM270300 00000KT P6SM OVC025
     FM270400 00000KT P6SM OVC040=

USA.gov is the U.S. government's official web portal to all federal, state and local government web resources and services.